エカテリンブルク の空港の天気 - METARとTAF

コルツォヴォ空港 ( USSS / SVX ) - ロシア エカテリンブルク
飛行場実況気象(Metar)
観測時間02/18 03:30 YEKT (02/17 22:30 UTC)
風向・風速南南東 5m/s
視程10km以上
天気現象弱い雪
全天の8割程度の雲 雲底高度 1400m
気温-5℃
湿度86%
気圧989hPa
METARUSSS 172230Z 16005MPS 9999 -SN BKN046 M05/M07 Q0989 R08L/490237 NOSIG RMK QFE722/0963
過去の天気等 Google飛行場航空写真 Wunderground天気予報

過去48時間のMETAR

飛行場予報(TAF)
発表時間: 2/18 00:56 YEKT (2/17 19:56 UTC)
予報対象時間: 18日2時 YEKT ~ 19日2時 YEKT
風向・風速南南東 3m/s 瞬間風速 12m/s
視程6000m
天気現象弱いしゅう雪
全天の8割程度の雲 雲底高度 340m
全天の4割程度の積乱雲 雲底高度 610m
18日2時 YEKT ~ 18日10時 YEKT に一時的に
視程3100m
天気現象弱いしゅう雪
18日11時 YEKT ~ 18日13時 YEKT に徐々に
視程3100m
天気現象弱いしゅう雪
TAF USSS 171956Z 1721/1821 16003G12MPS 6000 -SHSN BKN011 SCT020CB
TEMPO 1721/1805 3100 -SHSN
BECMG 1806/1808 3100 -SHSN